Time;durP1;ratioP1;P1;durP2;ratioP2;P2;SDS_P1;SDS_P2;PMS_P1;PMS_P2;Temp;Humidity;BMP_temperature;BMP_pressure;BME280_temperature;BME280_humidity;BME280_pressure;Samples;Min_cycle;Max_cycle;Signal;HPM_P1;HPM_P2
2022/10/03 00:01:57;;;;;;;5.55;1.47;;;;;;;10.54;75.75;100566.14;1634658;86;21585;-74
2022/10/03 00:05:12;;;;;;;4.00;1.50;;;;;;;10.58;75.78;100572.12;1626462;85;21166;-74
2022/10/03 00:08:18;;;;;;;6.75;1.35;;;;;;;10.63;75.76;100573.33;1636547;86;22251;-74
2022/10/03 00:11:24;;;;;;;7.85;1.52;;;;;;;10.67;75.96;100571.11;1652305;85;21128;-74
2022/10/03 00:14:48;;;;;;;10.40;1.90;;;;;;;10.69;75.98;100571.94;1660497;86;20985;-74
2022/10/03 00:18:02;;;;;;;5.95;1.75;;;;;;;10.70;75.97;100571.91;1587853;89;21153;-74
2022/10/03 00:21:20;;;;;;;8.35;1.72;;;;;;;10.73;76.12;100565.39;1647078;86;21040;-74
2022/10/03 00:24:28;;;;;;;5.60;1.32;;;;;;;10.75;76.07;100570.10;1657513;84;21056;-74
2022/10/03 00:27:36;;;;;;;10.75;2.30;;;;;;;10.77;76.09;100563.61;1618956;86;21132;-74
2022/10/03 00:30:23;;;;;;;6.83;1.72;;;;;;;10.80;76.17;100555.80;1640284;85;21120;-74
2022/10/03 00:33:52;;;;;;;9.75;1.65;;;;;;;10.82;76.15;100550.16;1662176;84;20985;-74
2022/10/03 00:36:45;;;;;;;8.13;1.42;;;;;;;10.85;76.31;100548.80;1643397;86;21730;-74
2022/10/03 00:39:44;;;;;;;9.03;1.57;;;;;;;10.89;76.24;100556.48;1655357;85;21045;-74
2022/10/03 00:43:01;;;;;;;9.88;1.70;;;;;;;10.91;76.27;100556.02;1633174;86;21130;-74
2022/10/03 00:46:34;;;;;;;11.68;1.90;;;;;;;10.94;76.30;100557.22;1604610;87;21137;-74
2022/10/03 00:49:42;;;;;;;7.78;2.08;;;;;;;10.94;76.42;100548.16;1587410;89;21576;-74
2022/10/03 00:53:12;;;;;;;9.10;1.95;;;;;;;10.95;76.42;100541.26;1609024;88;21169;-74
2022/10/03 00:56:35;;;;;;;9.10;1.67;;;;;;;10.95;76.48;100552.91;1604286;87;21203;-74
2022/10/03 00:59:56;;;;;;;11.60;2.05;;;;;;;10.97;76.49;100552.43;1595710;87;21623;-74
2022/10/03 01:02:55;;;;;;;7.40;1.70;;;;;;;10.99;76.53;100551.11;1614520;87;21722;-74
2022/10/03 01:06:15;;;;;;;5.78;1.60;;;;;;;10.99;76.51;100548.52;1606416;88;21106;-74
2022/10/03 01:09:14;;;;;;;5.22;1.50;;;;;;;11.00;76.53;100554.96;1617616;87;21128;-74
2022/10/03 01:12:27;;;;;;;9.98;1.87;;;;;;;11.02;76.61;100555.79;1608135;87;21684;-74
2022/10/03 01:15:20;;;;;;;4.37;1.45;;;;;;;11.02;76.59;100558.38;1606157;89;21771;-74
2022/10/03 01:18:19;;;;;;;9.80;2.05;;;;;;;11.04;76.67;100553.17;1650532;85;21503;-74
2022/10/03 01:21:30;;;;;;;6.37;2.20;;;;;;;11.04;76.66;100553.17;1653020;86;21092;-74
2022/10/03 01:24:46;;;;;;;8.85;1.80;;;;;;;11.04;76.68;100553.17;1655733;84;21048;-74
2022/10/03 01:31:11;;;;;;;12.20;1.70;;;;;;;11.03;76.75;100549.73;1656473;86;21053;-74
2022/10/03 01:34:22;;;;;;;6.70;1.25;;;;;;;11.00;76.80;100547.20;1650687;86;21071;-74
2022/10/03 01:37:32;;;;;;;13.38;1.90;;;;;;;11.00;76.84;100541.17;1648126;86;21191;-74
2022/10/03 01:40:26;;;;;;;11.78;2.10;;;;;;;11.00;76.92;100548.94;1660634;86;21057;-74
2022/10/03 01:43:22;;;;;;;8.43;1.57;;;;;;;10.99;76.88;100555.84;1645860;86;20993;-74
2022/10/03 01:46:20;;;;;;;6.58;1.50;;;;;;;10.97;76.93;100564.08;1650242;86;21098;-74
2022/10/03 01:49:20;;;;;;;6.72;1.72;;;;;;;10.98;77.07;100561.90;1662423;85;21064;-74
2022/10/03 01:52:31;;;;;;;8.73;1.70;;;;;;;11.00;77.00;100563.16;1656244;85;21540;-74
2022/10/03 01:55:38;;;;;;;10.15;1.72;;;;;;;11.00;77.03;100561.44;1650986;84;21084;-74
2022/10/03 01:58:31;;;;;;;9.63;1.70;;;;;;;11.02;77.05;100567.88;1646474;86;21086;-74
2022/10/03 02:01:52;;;;;;;8.85;1.55;;;;;;;11.05;77.08;100574.28;1643764;86;21052;-74
2022/10/03 02:04:52;;;;;;;8.63;1.62;;;;;;;11.06;77.05;100572.11;1666154;85;21699;-74
2022/10/03 02:07:57;;;;;;;12.43;1.92;;;;;;;11.07;77.18;100568.20;1656383;86;21105;-74
2022/10/03 02:11:09;;;;;;;9.35;1.77;;;;;;;11.08;77.21;100567.76;1655808;85;21077;-74
2022/10/03 02:13:57;;;;;;;9.13;1.67;;;;;;;11.09;77.21;100561.70;1650604;85;21121;-74
2022/10/03 02:17:22;;;;;;;9.55;1.62;;;;;;;11.09;77.23;100564.29;1660814;86;20989;-74
2022/10/03 02:20:27;;;;;;;;;;;;;;;11.11;77.27;100561.23;1661570;86;21466;-74
2022/10/03 02:23:27;;;;;;;7.22;1.42;;;;;;;11.12;77.42;100572.84;1652640;84;20491;-74
2022/10/03 02:26:51;;;;;;;14.68;2.20;;;;;;;11.12;77.27;100567.67;1663839;86;21135;-74
2022/10/03 02:29:52;;;;;;;8.98;1.45;;;;;;;11.14;77.44;100567.64;1662802;85;21060;-74
2022/10/03 02:33:12;;;;;;;4.78;1.40;;;;;;;11.14;77.32;100564.61;1661212;86;21068;-74
2022/10/03 02:36:11;;;;;;;10.93;1.82;;;;;;;11.14;77.38;100574.97;1640985;86;21526;-74
2022/10/03 02:39:10;;;;;;;11.70;1.80;;;;;;;11.16;77.43;100580.11;1649235;85;21045;-74
2022/10/03 02:42:36;;;;;;;7.87;1.60;;;;;;;11.15;77.46;100582.29;1660960;84;21052;-74
2022/10/03 02:46:00;;;;;;;12.80;1.80;;;;;;;11.17;77.43;100583.97;1658494;86;21123;-74
2022/10/03 02:49:22;;;;;;;6.28;1.70;;;;;;;11.19;77.47;100591.27;1622466;86;21092;-74
2022/10/03 02:52:38;;;;;;;10.28;1.90;;;;;;;11.20;77.48;100589.53;1654402;84;22118;-74
2022/10/03 02:55:38;;;;;;;12.40;1.77;;;;;;;11.21;77.49;100590.80;1660364;85;21112;-74
2022/10/03 02:59:19;;;;;;;8.10;1.67;;;;;;;11.22;77.49;100595.53;1653883;86;21052;-74
2022/10/03 03:02:15;;;;;;;7.42;1.67;;;;;;;11.23;77.48;100597.23;1658448;86;21324;-74
2022/10/03 03:05:38;;;;;;;9.65;1.70;;;;;;;11.25;77.56;100594.17;1638583;86;21114;-75
2022/10/03 03:08:35;;;;;;;7.67;1.80;;;;;;;11.26;77.59;100568.27;1662942;85;21060;-74
2022/10/03 03:11:58;;;;;;;6.65;1.70;;;;;;;11.28;77.53;100600.15;1652017;86;21500;-74
2022/10/03 03:15:21;;;;;;;12.93;1.80;;;;;;;11.27;77.57;100607.50;1644719;84;21472;-74
2022/10/03 03:18:26;;;;;;;5.65;1.47;;;;;;;11.30;77.57;100607.89;1629541;87;21064;-74
2022/10/03 03:21:19;;;;;;;5.12;1.22;;;;;;;11.30;77.54;100607.03;1617377;87;21588;-74
2022/10/03 03:24:38;;;;;;;13.85;1.95;;;;;;;11.26;77.63;100601.91;1626100;87;21560;-74
2022/10/03 03:27:31;;;;;;;8.43;1.45;;;;;;;11.24;77.63;100600.23;1623061;87;21072;-74
2022/10/03 03:30:23;;;;;;;9.38;1.50;;;;;;;11.23;77.67;100610.17;1625686;87;21109;-74
2022/10/03 03:33:22;;;;;;;4.45;1.62;;;;;;;11.22;77.68;100609.77;1614223;87;21116;-74
2022/10/03 03:36:25;;;;;;;7.22;1.40;;;;;;;11.19;77.68;100608.52;1610407;87;21120;-74
2022/10/03 03:39:36;;;;;;;9.10;2.08;;;;;;;11.18;77.72;100621.05;1619735;87;21528;-74
2022/10/03 03:42:50;;;;;;;7.35;1.57;;;;;;;11.17;77.79;100609.84;1632583;87;21376;-74
2022/10/03 03:45:43;;;;;;;12.00;1.80;;;;;;;11.16;77.74;100618.50;1627745;87;21102;-74
2022/10/03 03:49:02;;;;;;;6.60;1.55;;;;;;;11.16;77.76;100622.38;1631732;84;21112;-74
2022/10/03 03:52:19;;;;;;;8.18;1.77;;;;;;;11.16;77.77;100618.94;1659311;86;21089;-74
2022/10/03 03:55:30;;;;;;;7.97;1.70;;;;;;;11.15;77.79;100615.49;1654760;84;21064;-74
2022/10/03 03:58:56;;;;;;;7.03;1.22;;;;;;;11.13;77.89;100630.20;1657285;85;21089;-74
2022/10/03 04:02:21;;;;;;;6.90;1.57;;;;;;;11.13;77.95;100618.55;1659517;86;26810;-74
2022/10/03 04:05:20;;;;;;;10.93;1.25;;;;;;;11.14;77.88;100630.61;1653920;86;21076;-74
2022/10/03 04:08:36;;;;;;;5.83;1.45;;;;;;;11.15;77.92;100630.16;1641531;85;21050;-74
2022/10/03 04:11:48;;;;;;;4.97;1.50;;;;;;;11.18;77.97;100637.88;1645011;86;21077;-75
2022/10/03 04:15:01;;;;;;;7.40;1.25;;;;;;;11.20;77.89;100642.59;1632762;86;21046;-73
2022/10/03 04:21:49;;;;;;;6.33;1.82;;;;;;;11.21;77.96;100635.23;1641351;86;21057;-75
2022/10/03 04:24:55;;;;;;;5.60;1.50;;;;;;;11.22;77.95;100644.27;1641134;85;21475;-74
2022/10/03 04:28:21;;;;;;;5.30;1.77;;;;;;;11.24;77.94;100649.41;1638312;85;28411;-73
2022/10/03 04:31:13;;;;;;;;;;;;;;;11.22;77.91;100614.50;1645524;85;21069;-74
2022/10/03 04:34:23;;;;;;;7.87;1.17;;;;;;;11.21;78.14;100636.09;1628484;85;20190;-74
2022/10/03 04:37:31;;;;;;;4.58;1.40;;;;;;;11.18;77.90;100632.26;1630361;85;21351;-74
2022/10/03 04:40:24;;;;;;;6.12;1.50;;;;;;;11.15;77.92;100634.91;1638381;85;20986;-74
2022/10/03 04:43:33;;;;;;;8.78;1.50;;;;;;;11.11;77.92;100635.84;1633155;86;21003;-74
2022/10/03 04:46:41;;;;;;;8.78;1.85;;;;;;;11.08;77.98;100644.95;1642503;85;21049;-74
2022/10/03 04:49:40;;;;;;;5.67;1.25;;;;;;;11.06;77.99;100649.30;1633520;86;21546;-74
2022/10/03 04:52:39;;;;;;;5.35;1.50;;;;;;;11.04;78.00;100645.03;1644465;86;21065;-74
2022/10/03 04:55:44;;;;;;;5.00;1.20;;;;;;;11.04;78.00;100640.70;1645682;86;21038;-74
2022/10/03 04:58:49;;;;;;;3.35;1.50;;;;;;;11.03;78.03;100639.00;1630450;85;21074;-74
2022/10/03 05:02:04;;;;;;;9.63;1.32;;;;;;;11.03;78.06;100649.34;1638467;85;21049;-74
2022/10/03 05:05:13;;;;;;;7.80;1.27;;;;;;;11.04;78.10;100645.03;1646120;86;21488;-74
2022/10/03 05:08:06;;;;;;;5.20;1.22;;;;;;;11.04;78.07;100649.77;1628425;86;21377;-74
2022/10/03 05:11:21;;;;;;;7.50;1.40;;;;;;;11.05;78.14;100654.05;1645022;86;21143;-74
2022/10/03 05:14:24;;;;;;;4.25;1.10;;;;;;;11.06;78.12;100656.20;1605221;87;21095;-74
2022/10/03 05:17:29;;;;;;;3.67;0.98;;;;;;;11.08;78.13;100656.59;1614712;88;21037;-74
2022/10/03 05:20:34;;;;;;;4.12;1.45;;;;;;;11.11;78.14;100649.22;1612647;88;21108;-74
2022/10/03 05:23:30;;;;;;;5.28;1.30;;;;;;;11.12;78.16;100655.66;1621294;87;21089;-74
2022/10/03 05:26:29;;;;;;;7.72;1.30;;;;;;;11.14;78.16;100664.25;1617174;88;21085;-74
2022/10/03 05:29:47;;;;;;;3.00;1.27;;;;;;;11.16;78.18;100665.08;1607057;86;21093;-74
2022/10/03 05:33:05;;;;;;;3.12;1.25;;;;;;;11.19;78.20;100660.29;1621793;88;21061;-74
2022/10/03 05:36:11;;;;;;;6.00;1.05;;;;;;;11.20;78.18;100668.47;1574172;90;21764;-74
2022/10/03 05:39:43;;;;;;;2.72;1.00;;;;;;;11.22;78.22;100666.70;1578938;89;21184;-74
2022/10/03 05:42:51;;;;;;;3.85;1.20;;;;;;;11.26;78.22;100667.06;1582482;88;21172;-74
2022/10/03 05:46:05;;;;;;;6.37;1.30;;;;;;;11.28;78.22;100672.62;1583802;88;21083;-74
2022/10/03 05:49:15;;;;;;;7.33;1.12;;;;;;;11.32;78.23;100679.05;1582297;89;21078;-74
2022/10/03 05:52:31;;;;;;;3.20;1.15;;;;;;;11.32;78.23;100672.58;1569156;90;21093;-74
2022/10/03 05:55:22;;;;;;;;;;;;;;;11.38;78.23;100682.82;1582130;90;21157;-74
2022/10/03 05:58:25;;;;;;;3.75;1.20;;;;;;;11.39;78.38;100674.17;1565733;90;20204;-74
2022/10/03 06:01:51;;;;;;;6.45;1.15;;;;;;;11.45;78.27;100679.20;1576073;90;21171;-74
2022/10/03 06:05:15;;;;;;;3.83;1.05;;;;;;;11.52;78.23;100673.88;1584668;89;21151;-74
2022/10/03 06:08:47;;;;;;;4.20;1.17;;;;;;;11.63;78.30;100675.42;1616121;88;21116;-74
2022/10/03 06:11:59;;;;;;;2.72;1.17;;;;;;;11.64;78.22;100677.13;1576349;89;21099;-74
2022/10/03 06:15:16;;;;;;;5.67;1.27;;;;;;;11.60;78.23;100687.55;1592130;89;21169;-74
2022/10/03 06:18:10;;;;;;;5.40;1.10;;;;;;;11.67;78.34;100700.38;1609587;87;21108;-74
2022/10/03 06:21:22;;;;;;;7.78;1.40;;;;;;;11.97;78.41;100705.41;1619963;87;21061;-74
2022/10/03 06:24:37;;;;;;;3.87;1.02;;;;;;;12.25;78.24;100700.06;1616068;86;21105;-74
2022/10/03 06:28:09;;;;;;;7.30;1.32;;;;;;;12.26;78.19;100697.44;1612170;87;21048;-74
2022/10/03 06:31:31;;;;;;;5.08;1.22;;;;;;;12.26;78.19;100701.77;1609936;87;21056;-74
2022/10/03 06:34:30;;;;;;;3.12;0.93;;;;;;;12.42;78.29;100686.73;1614986;88;21085;-74
2022/10/03 06:37:35;;;;;;;7.12;1.77;;;;;;;12.42;78.10;100685.44;1605004;88;21155;-74
2022/10/03 06:40:58;;;;;;;7.13;1.20;;;;;;;12.39;78.05;100699.33;1615631;87;21113;-74
2022/10/03 06:44:27;;;;;;;2.85;1.20;;;;;;;12.39;78.17;100699.77;1613330;88;21103;-74
2022/10/03 06:47:23;;;;;;;4.75;1.12;;;;;;;12.40;78.13;100702.77;1617841;88;21093;-74
2022/10/03 06:50:28;;;;;;;3.65;1.02;;;;;;;12.37;78.14;100716.66;1613148;88;21045;-74
2022/10/03 06:53:45;;;;;;;7.22;1.35;;;;;;;12.37;78.12;100724.44;1615052;87;21045;-74
2022/10/03 06:56:51;;;;;;;6.08;1.15;;;;;;;12.38;78.13;100732.63;1614957;88;21664;-74
2022/10/03 07:00:09;;;;;;;4.33;1.05;;;;;;;12.39;78.12;100734.34;1596564;88;20997;-74
2022/10/03 07:03:25;;;;;;;4.92;1.20;;;;;;;12.38;78.06;100745.59;1626131;86;21528;-74
2022/10/03 07:06:32;;;;;;;8.38;1.72;;;;;;;12.35;78.00;100752.14;1658152;86;21548;-74
2022/10/03 07:09:59;;;;;;;10.43;2.80;;;;;;;12.33;78.06;100753.91;1607119;87;21139;-74
2022/10/03 07:13:23;;;;;;;7.62;1.40;;;;;;;12.31;78.03;100753.09;1582360;87;27010;-74
2022/10/03 07:16:34;;;;;;;4.33;1.35;;;;;;;12.29;77.99;100761.34;1620899;87;20984;-74
2022/10/03 07:19:33;;;;;;;5.75;1.27;;;;;;;12.26;78.01;100761.41;1653694;85;21139;-74
2022/10/03 07:22:35;;;;;;;6.85;0.93;;;;;;;12.24;77.98;100758.84;1653810;85;21092;-74
2022/10/03 07:25:47;;;;;;;3.02;1.10;;;;;;;12.25;78.01;100759.70;1623767;87;21048;-74
2022/10/03 07:29:09;;;;;;;6.03;1.32;;;;;;;12.27;77.99;100765.70;1651336;84;21052;-74
2022/10/03 07:32:12;;;;;;;5.25;1.22;;;;;;;12.32;77.95;100773.39;1653292;84;21120;-74
2022/10/03 07:38:58;;;;;;;4.45;1.25;;;;;;;12.42;77.97;100768.42;1661162;84;21057;-74
2022/10/03 07:41:53;;;;;;;;;;;;;;;12.51;77.98;100772.94;1656824;85;21065;-74
2022/10/03 07:45:09;;;;;;;4.72;1.15;;;;;;;12.54;77.86;100774.62;1654820;84;20163;-74
2022/10/03 07:48:26;;;;;;;9.70;1.87;;;;;;;12.55;77.89;100781.07;1630437;87;21136;-75
2022/10/03 07:51:36;;;;;;;5.58;1.40;;;;;;;12.54;77.82;100785.84;1662624;84;21546;-74
2022/10/03 07:54:46;;;;;;;10.65;1.80;;;;;;;12.55;77.89;100791.89;1655773;85;21037;-74
2022/10/03 07:57:49;;;;;;;3.95;1.32;;;;;;;12.56;77.82;100784.08;1664977;85;21005;-74
2022/10/03 08:01:20;;;;;;;5.15;1.30;;;;;;;12.55;77.80;100799.23;1666377;84;21595;-74
2022/10/03 08:04:30;;;;;;;6.70;1.90;;;;;;;12.55;77.80;100791.45;1656551;86;21081;-75
2022/10/03 08:07:46;;;;;;;2.45;1.00;;;;;;;12.58;77.78;100797.87;1658754;86;21060;-75
2022/10/03 08:11:06;;;;;;;5.90;1.47;;;;;;;12.64;77.77;100791.70;1632952;87;21666;-75
2022/10/03 08:14:41;;;;;;;4.58;1.07;;;;;;;12.67;77.77;100799.41;1658782;84;21097;-74
2022/10/03 08:17:29;;;;;;;;;;;;;;;12.69;77.71;100803.27;1658857;85;21076;-74
2022/10/03 08:20:35;;;;;;;4.08;1.12;;;;;;;12.67;77.67;100804.60;1651374;85;20189;-74
2022/10/03 08:23:59;;;;;;;5.22;1.30;;;;;;;12.69;77.70;100808.46;1649433;84;21663;-74
2022/10/03 08:26:52;;;;;;;3.77;1.27;;;;;;;12.69;77.68;100809.31;1550433;90;21101;-74
2022/10/03 08:30:21;;;;;;;5.15;2.70;;;;;;;12.72;77.65;100816.18;1548399;90;21110;-75
2022/10/03 08:33:46;;;;;;;9.98;2.10;;;;;;;12.71;77.64;100817.06;1549884;90;21176;-75
2022/10/03 08:36:42;;;;;;;3.95;1.35;;;;;;;12.71;77.64;100828.74;1547754;91;21598;-74
2022/10/03 08:39:47;;;;;;;;;;;;;;;12.69;77.65;100827.92;1532572;92;21165;-74
2022/10/03 08:43:00;;;;;;;4.53;1.50;;;;;;;12.69;77.61;100827.92;1551477;91;20216;-74
2022/10/03 08:46:07;;;;;;;5.15;2.30;;;;;;;12.65;77.64;100832.32;1547876;92;21101;-74
2022/10/03 08:49:34;;;;;;;5.62;1.30;;;;;;;12.64;77.65;100837.09;1543930;92;21112;-74
2022/10/03 08:52:43;;;;;;;9.60;2.67;;;;;;;12.60;77.60;100853.61;1530826;92;21152;-75
2022/10/03 08:56:06;;;;;;;3.27;1.67;;;;;;;12.57;77.65;100860.16;1537298;92;21759;-74
2022/10/03 08:59:40;;;;;;;3.55;1.60;;;;;;;12.36;77.59;100858.88;1536239;91;21663;-74
2022/10/03 09:02:33;;;;;;;4.80;1.85;;;;;;;12.15;77.78;100868.34;1640242;86;21068;-74
2022/10/03 09:05:53;;;;;;;5.05;1.98;;;;;;;12.06;78.02;100873.25;1614341;87;21080;-74
2022/10/03 09:09:24;;;;;;;5.00;2.00;;;;;;;12.03;78.02;100873.75;1648804;85;21088;-74
2022/10/03 09:12:26;;;;;;;5.20;1.32;;;;;;;12.04;78.16;100869.83;1641264;86;21644;-74
2022/10/03 09:15:49;;;;;;;6.97;2.42;;;;;;;12.07;78.17;100865.89;1656703;86;21069;-74
2022/10/03 09:19:01;;;;;;;2.72;1.42;;;;;;;12.16;78.26;100873.95;1646849;86;21737;-75
2022/10/03 09:22:28;;;;;;;6.22;1.95;;;;;;;12.32;78.30;100868.89;1653615;86;21004;-75
2022/10/03 09:25:37;;;;;;;4.83;1.92;;;;;;;12.46;78.20;100861.70;1579033;89;21117;-75
2022/10/03 09:28:54;;;;;;;3.67;1.62;;;;;;;12.66;78.29;100860.41;1551943;89;21190;-75
2022/10/03 09:32:18;;;;;;;3.37;1.50;;;;;;;12.85;78.25;100860.00;1572891;89;21132;-74
2022/10/03 09:35:46;;;;;;;2.17;1.27;;;;;;;13.03;78.10;100861.31;1565691;89;21195;-75
2022/10/03 09:38:49;;;;;;;2.50;1.60;;;;;;;13.14;78.01;100860.63;1520887;93;21145;-75
2022/10/03 09:42:00;;;;;;;2.55;1.35;;;;;;;13.24;78.05;100871.25;1514794;92;21135;-75
2022/10/03 09:45:12;;;;;;;3.15;1.60;;;;;;;13.33;78.00;100877.13;1536628;91;21142;-75
2022/10/03 09:48:14;;;;;;;3.98;1.30;;;;;;;13.41;78.00;100867.42;1582358;89;21651;-75
2022/10/03 09:51:08;;;;;;;3.20;1.35;;;;;;;13.58;78.07;100886.03;1519860;93;21181;-75
2022/10/03 09:54:31;;;;;;;3.55;1.37;;;;;;;13.71;77.99;100888.73;1519709;93;21120;-75
2022/10/03 09:57:47;;;;;;;4.37;1.55;;;;;;;13.75;77.87;100881.28;1647044;86;21097;-75
2022/10/03 10:00:47;;;;;;;4.42;1.50;;;;;;;13.78;77.88;100898.09;1654218;85;21553;-75
2022/10/03 10:04:24;;;;;;;7.15;2.77;;;;;;;13.80;77.89;100911.05;1637006;86;21099;-74
2022/10/03 10:07:26;;;;;;;2.00;1.40;;;;;;;13.82;77.78;100911.42;1651143;85;21020;-75
2022/10/03 10:10:53;;;;;;;7.20;1.70;;;;;;;13.83;77.76;100909.23;1638881;85;21100;-75
2022/10/03 10:13:52;;;;;;;2.22;1.52;;;;;;;13.87;77.78;100921.27;1534120;86;5001764;-75
2022/10/03 10:17:20;;;;;;;1.92;1.42;;;;;;;13.94;77.79;100926.31;1624661;88;21067;-75
2022/10/03 10:20:23;;;;;;;2.12;1.50;;;;;;;13.96;77.68;100929.73;1607454;88;21092;-75
2022/10/03 10:23:33;;;;;;;4.17;1.57;;;;;;;13.91;77.62;100932.44;1613903;87;21004;-74
2022/10/03 10:26:58;;;;;;;3.30;1.57;;;;;;;13.88;77.55;100934.67;1610808;88;21068;-75
2022/10/03 10:30:30;;;;;;;5.22;1.20;;;;;;;13.83;77.40;100936.97;1614682;88;21507;-74
2022/10/03 10:33:49;;;;;;;1.85;1.25;;;;;;;13.72;77.32;100942.88;1617319;88;21122;-74
2022/10/03 10:37:12;;;;;;;5.37;1.45;;;;;;;13.62;77.27;100942.67;1611857;88;21121;-74
2022/10/03 10:40:29;;;;;;;1.65;1.27;;;;;;;13.55;77.24;100948.02;1622144;86;21069;-74
2022/10/03 10:43:52;;;;;;;3.62;1.30;;;;;;;13.55;77.34;100951.91;1616882;88;21082;-74
2022/10/03 10:47:05;;;;;;;1.77;1.22;;;;;;;13.56;77.28;100957.52;1602286;88;21009;-74
2022/10/03 10:50:21;;;;;;;1.60;1.50;;;;;;;13.55;77.18;100958.41;1617168;87;21129;-74
2022/10/03 10:53:48;;;;;;;1.22;1.10;;;;;;;13.54;77.09;100951.50;1621292;88;21076;-74
2022/10/03 10:57:24;;;;;;;1.22;1.00;;;;;;;13.49;76.98;100961.61;1611500;86;21121;-74
2022/10/03 11:00:46;;;;;;;2.60;2.40;;;;;;;13.41;77.12;100962.23;1615084;87;21124;-74
2022/10/03 11:03:58;;;;;;;1.40;1.10;;;;;;;13.39;77.24;100957.06;1617172;88;21455;-74
2022/10/03 11:06:57;;;;;;;1.15;1.05;;;;;;;13.46;77.17;100957.34;1616909;87;21576;-74
2022/10/03 11:10:20;;;;;;;1.80;1.22;;;;;;;13.48;77.14;100960.76;1614999;86;21041;-74
2022/10/03 11:13:53;;;;;;;2.65;1.42;;;;;;;13.52;77.11;100958.47;1592337;87;21346;-74
2022/10/03 11:17:16;;;;;;;1.57;0.80;;;;;;;13.52;77.06;100962.37;1613975;86;21068;-74
2022/10/03 11:20:30;;;;;;;1.10;1.00;;;;;;;13.49;77.07;100962.47;1601804;87;21084;-75
2022/10/03 11:23:55;;;;;;;0.88;0.62;;;;;;;13.48;77.01;100962.50;1604469;87;21131;-74
2022/10/03 11:27:10;;;;;;;1.02;0.85;;;;;;;13.48;77.07;100962.50;1579328;88;21099;-75
2022/10/03 11:30:43;;;;;;;2.00;0.90;;;;;;;13.49;76.99;100961.61;1607105;87;21064;-75
2022/10/03 11:34:12;;;;;;;1.22;1.12;;;;;;;13.53;77.01;100960.62;1547575;91;21609;-75
2022/10/03 11:37:22;;;;;;;1.32;1.10;;;;;;;13.64;77.03;100956.05;1550478;91;21112;-75
2022/10/03 11:40:33;;;;;;;1.57;1.40;;;;;;;13.76;76.94;100959.66;1550048;91;21128;-75
2022/10/03 11:43:46;;;;;;;1.57;1.22;;;;;;;13.86;76.93;100958.55;1550934;91;21578;-74
2022/10/03 11:46:43;;;;;;;2.05;1.20;;;;;;;13.97;76.92;100954.84;1551507;91;21167;-74
2022/10/03 11:49:49;;;;;;;4.03;1.10;;;;;;;14.05;76.83;100955.47;1537137;91;21213;-74
2022/10/03 11:52:54;;;;;;;2.27;1.27;;;;;;;14.13;76.74;100956.98;1537304;91;21180;-74
2022/10/03 11:56:18;;;;;;;1.30;1.07;;;;;;;14.22;76.76;100955.45;1528245;91;22168;-74
2022/10/03 11:59:25;;;;;;;1.80;1.10;;;;;;;14.35;76.73;100952.55;1537133;91;21100;-74
2022/10/03 12:02:33;;;;;;;2.87;1.22;;;;;;;14.43;76.65;100950.63;1491144;93;21180;-74
2022/10/03 12:05:26;;;;;;;4.08;1.37;;;;;;;14.49;76.55;100949.17;1563205;88;21054;-74
2022/10/03 12:11:52;;;;;;;5.22;1.17;;;;;;;14.62;76.54;100949.66;1612165;87;21137;-74
2022/10/03 12:14:45;;;;;;;1.65;1.07;;;;;;;14.65;76.39;100961.30;1581625;88;21402;-74
2022/10/03 12:17:41;;;;;;;1.77;1.30;;;;;;;14.66;76.34;100954.74;1643136;85;21641;-74
2022/10/03 12:20:52;;;;;;;1.77;1.27;;;;;;;14.70;76.30;100950.30;1598516;88;21107;-74
2022/10/03 12:24:17;;;;;;;3.42;2.10;;;;;;;14.72;76.37;100949.81;1606071;88;21091;-74
2022/10/03 12:27:37;;;;;;;2.52;1.50;;;;;;;14.72;76.26;100948.52;1607190;88;21127;-74
2022/10/03 12:30:22;;;;;;;5.65;1.55;;;;;;;14.66;76.21;100951.28;1650055;85;21136;-75
2022/10/03 12:33:32;;;;;;;1.52;1.25;;;;;;;14.63;76.10;100955.27;1604279;88;21107;-74
2022/10/03 12:36:49;;;;;;;5.47;1.50;;;;;;;14.58;76.09;100958.85;1606268;88;21099;-74
2022/10/03 12:40:05;;;;;;;3.10;1.42;;;;;;;14.55;76.17;100960.27;1608724;88;21067;-74
2022/10/03 12:43:10;;;;;;;4.45;1.20;;;;;;;14.59;76.20;100964.91;1649512;85;21075;-74
2022/10/03 12:46:17;;;;;;;2.87;1.30;;;;;;;14.69;76.18;100967.67;1648318;85;21494;-74
2022/10/03 12:49:53;;;;;;;6.05;1.60;;;;;;;14.84;76.15;100957.29;1651167;85;21117;-74
2022/10/03 12:53:17;;;;;;;3.62;1.45;;;;;;;14.93;75.97;100963.98;1651196;84;21608;-75
2022/10/03 12:56:23;;;;;;;4.42;1.30;;;;;;;14.94;75.89;100961.79;1609631;87;21580;-74
2022/10/03 12:59:41;;;;;;;4.90;1.37;;;;;;;14.84;75.77;100967.25;1612315;88;21054;-74
2022/10/03 13:03:00;;;;;;;5.78;1.42;;;;;;;14.76;75.79;100970.52;1566971;89;21802;-73
2022/10/03 13:06:02;;;;;;;2.95;1.27;;;;;;;14.67;75.74;100965.56;1609852;87;21111;-74
2022/10/03 13:09:16;;;;;;;3.58;1.27;;;;;;;14.66;75.73;100970.80;1610581;87;21668;-74
2022/10/03 13:12:09;;;;;;;4.28;1.27;;;;;;;14.66;75.71;100968.20;1652766;84;21026;-74
2022/10/03 13:15:40;;;;;;;3.95;1.20;;;;;;;14.65;75.68;100976.91;1604989;87;21071;-76
2022/10/03 13:18:45;;;;;;;7.47;1.40;;;;;;;14.57;75.61;100980.56;1610982;87;21583;-76
2022/10/03 13:22:16;;;;;;;5.72;1.02;;;;;;;14.47;75.53;100977.83;1597239;87;21007;-76
2022/10/03 13:25:09;;;;;;;2.45;0.88;;;;;;;14.42;75.61;100986.20;1610302;88;21189;-75
2022/10/03 13:28:24;;;;;;;1.95;0.75;;;;;;;14.34;75.59;100977.70;1641700;85;21530;-76
2022/10/03 13:31:29;;;;;;;2.75;0.95;;;;;;;14.28;75.57;100983.51;1610416;87;21529;-75
2022/10/03 13:34:18;;;;;;;2.77;1.30;;;;;;;14.22;75.52;100984.52;1645873;85;21180;-75
2022/10/03 13:37:25;;;;;;;3.67;0.90;;;;;;;14.20;75.54;100985.00;1615021;87;21088;-76
2022/10/03 13:40:14;;;;;;;5.65;1.07;;;;;;;14.22;75.54;100985.38;1606981;88;21111;-76
2022/10/03 13:43:03;;;;;;;7.53;1.75;;;;;;;14.30;75.49;100987.78;1601423;87;21078;-75
2022/10/03 13:45:50;;;;;;;5.70;1.00;;;;;;;14.40;75.44;100983.20;1586124;87;21071;-75
2022/10/03 13:48:35;;;;;;;5.50;1.20;;;;;;;14.46;75.37;100977.88;1601151;87;21501;-75
2022/10/03 13:51:28;;;;;;;4.97;1.10;;;;;;;14.50;75.35;100985.56;1597331;87;21155;-75
2022/10/03 13:54:20;;;;;;;5.72;1.32;;;;;;;14.55;75.36;100984.99;1603734;87;21687;-75
2022/10/03 13:57:18;;;;;;;5.72;1.70;;;;;;;14.59;75.27;100993.54;1626081;85;21370;-75
2022/10/03 14:00:16;;;;;;;6.35;1.20;;;;;;;14.68;75.30;100993.30;1604725;87;21065;-75
2022/10/03 14:03:29;;;;;;;9.70;1.40;;;;;;;14.79;75.26;100994.31;1635057;85;21067;-75
2022/10/03 14:06:47;;;;;;;4.65;1.57;;;;;;;14.84;75.14;100988.53;1653946;85;21110;-75
2022/10/03 14:09:54;;;;;;;6.33;1.55;;;;;;;14.89;75.12;100990.11;1645367;85;21106;-75
2022/10/03 14:15:51;;;;;;;6.40;1.60;;;;;;;14.83;74.95;100995.48;1858793;75;22686;-75
2022/10/03 14:18:50;;;;;;;9.93;1.50;;;;;;;14.75;74.95;101001.80;1814987;77;21052;-74
2022/10/03 14:21:49;;;;;;;3.17;1.00;;;;;;;14.63;74.76;101003.42;1822243;77;21067;-74
2022/10/03 14:24:42;;;;;;;10.03;1.30;;;;;;;14.55;74.81;101004.51;1816677;77;20984;-74
2022/10/03 14:27:45;;;;;;;3.10;1.42;;;;;;;14.58;74.87;101010.05;1808777;77;21003;-76
2022/10/03 14:30:47;;;;;;;3.08;1.10;;;;;;;14.59;74.80;101018.27;1731634;80;21068;-75
2022/10/03 14:33:46;;;;;;;4.78;1.10;;;;;;;14.58;74.71;101015.25;1765821;79;21007;-76
2022/10/03 14:36:48;;;;;;;6.28;1.20;;;;;;;14.58;74.66;101018.71;1767659;79;20972;-75
2022/10/03 14:39:47;;;;;;;3.72;1.70;;;;;;;14.56;74.67;101025.70;1762820;79;20977;-75
2022/10/03 14:42:50;;;;;;;4.10;1.22;;;;;;;14.50;74.54;101022.44;1760828;79;21017;-73
2022/10/03 14:45:48;;;;;;;6.62;1.30;;;;;;;14.42;74.48;101026.53;1743670;80;21058;-73
2022/10/03 14:48:41;;;;;;;6.30;1.20;;;;;;;14.34;74.53;101023.68;1746823;80;21501;-73
2022/10/03 14:51:40;;;;;;;5.10;1.17;;;;;;;14.29;74.47;101024.23;1577082;82;10000332;-73
2022/10/03 14:54:29;;;;;;;5.40;1.25;;;;;;;14.25;74.49;101027.36;1704417;82;21039;-74
2022/10/03 14:57:34;;;;;;;7.53;1.25;;;;;;;14.20;74.43;101025.31;1742264;81;21100;-74
2022/10/03 15:00:44;;;;;;;6.53;1.37;;;;;;;14.17;74.40;101022.79;1723842;81;21086;-74
2022/10/03 15:03:38;;;;;;;6.42;1.40;;;;;;;14.14;74.43;101023.72;1739099;80;21055;-74